createdAt,value
2019-01-25T00:00:06.556Z,0
2019-01-25T00:01:15.742Z,0
2019-01-25T00:02:25.423Z,0
2019-01-25T00:03:35.352Z,0
2019-01-25T00:04:44.805Z,0
2019-01-25T00:05:54.745Z,0
2019-01-25T00:07:04.434Z,0
2019-01-25T00:08:14.363Z,0
2019-01-25T00:09:24.041Z,0
2019-01-25T00:10:33.973Z,0
2019-01-25T00:11:43.932Z,0
2019-01-25T00:12:53.895Z,0
2019-01-25T00:14:03.342Z,0
2019-01-25T00:15:13.292Z,0
2019-01-25T00:16:23.252Z,0
2019-01-25T00:17:33.180Z,0
2019-01-25T00:18:43.137Z,0
2019-01-25T00:19:52.829Z,0
2019-01-25T00:21:03.164Z,0
2019-01-25T00:22:12.856Z,0
2019-01-25T00:23:22.843Z,0
2019-01-25T00:24:32.583Z,0
2019-01-25T00:25:42.041Z,0
2019-01-25T00:26:51.995Z,0
2019-01-25T00:28:01.681Z,0
2019-01-25T00:29:11.617Z,0
2019-01-25T00:30:21.343Z,0
2019-01-25T00:31:32.809Z,0
2019-01-25T00:32:42.584Z,0
2019-01-25T00:33:52.522Z,0
2019-01-25T00:35:02.215Z,0
2019-01-25T00:36:11.955Z,0
2019-01-25T00:37:21.969Z,0
2019-01-25T00:38:31.899Z,0
2019-01-25T00:39:41.836Z,0
2019-01-25T00:40:51.767Z,0
2019-01-25T00:42:01.703Z,0
2019-01-25T00:43:11.394Z,0
2019-01-25T00:44:21.351Z,0
2019-01-25T00:45:31.043Z,0
2019-01-25T00:46:40.733Z,0
2019-01-25T00:47:50.672Z,0
2019-01-25T00:49:01.166Z,0
2019-01-25T00:50:11.097Z,0
2019-01-25T00:51:20.788Z,0
2019-01-25T00:52:30.476Z,0
2019-01-25T00:53:40.415Z,0
2019-01-25T00:54:50.350Z,0
2019-01-25T00:56:00.035Z,0
2019-01-25T00:57:09.973Z,0
2019-01-25T00:58:19.813Z,0
2019-01-25T00:59:29.503Z,0
2019-01-25T01:00:39.189Z,0
2019-01-25T01:01:49.121Z,0
2019-01-25T01:02:58.829Z,0
2019-01-25T01:04:08.530Z,0
2019-01-25T01:05:18.493Z,0
2019-01-25T01:06:28.417Z,0
2019-01-25T01:07:38.349Z,0
2019-01-25T01:08:48.287Z,0
2019-01-25T01:09:57.978Z,0
2019-01-25T01:11:07.758Z,0
2019-01-25T01:12:17.720Z,0
2019-01-25T01:13:27.410Z,0
2019-01-25T01:14:37.336Z,0
2019-01-25T01:15:47.015Z,0
2019-01-25T01:16:56.950Z,0
2019-01-25T01:18:06.894Z,0
2019-01-25T01:19:16.328Z,0
2019-01-25T01:20:26.262Z,0
2019-01-25T01:21:36.209Z,0
2019-01-25T01:22:46.152Z,0
2019-01-25T01:23:55.842Z,0
2019-01-25T01:25:05.771Z,0
2019-01-25T01:26:15.713Z,0
2019-01-25T01:27:25.166Z,0
2019-01-25T01:28:35.099Z,0
2019-01-25T01:29:45.039Z,0
2019-01-25T01:30:54.720Z,0
2019-01-25T01:32:04.660Z,0
2019-01-25T01:33:14.343Z,0
2019-01-25T01:34:24.022Z,0
2019-01-25T01:35:33.697Z,0
2019-01-25T01:36:43.382Z,0
2019-01-25T01:37:53.057Z,0
2019-01-25T01:39:02.991Z,0
2019-01-25T01:40:12.664Z,0
2019-01-25T01:41:29.023Z,0
2019-01-25T01:42:38.948Z,0
2019-01-25T01:43:48.623Z,0
2019-01-25T01:44:58.128Z,0
2019-01-25T01:46:08.074Z,0
2019-01-25T01:47:19.636Z,0
2019-01-25T01:48:29.584Z,0
2019-01-25T01:49:39.024Z,0
2019-01-25T01:50:48.758Z,0
2019-01-25T01:51:58.683Z,0
2019-01-25T01:53:08.609Z,0
2019-01-25T01:54:18.583Z,0
2019-01-25T01:55:28.510Z,0
2019-01-25T01:56:38.186Z,0
2019-01-25T01:57:48.134Z,0
2019-01-25T01:58:57.816Z,0
2019-01-25T02:00:07.001Z,0
2019-01-25T02:01:16.933Z,0
2019-01-25T02:02:26.860Z,0
2019-01-25T02:03:36.798Z,0
2019-01-25T02:04:46.727Z,0
2019-01-25T02:05:56.918Z,0
2019-01-25T02:07:06.350Z,0
2019-01-25T02:08:16.036Z,0
2019-01-25T02:09:25.716Z,0
2019-01-25T02:10:36.842Z,0
2019-01-25T02:11:46.785Z,0
2019-01-25T02:12:56.706Z,0
2019-01-25T02:14:06.451Z,0
2019-01-25T02:15:16.126Z,0
2019-01-25T02:16:26.045Z,0
2019-01-25T02:17:36.224Z,0
2019-01-25T02:18:46.158Z,0
2019-01-25T02:19:56.087Z,0
2019-01-25T02:21:06.023Z,0
2019-01-25T02:22:15.974Z,0
2019-01-25T02:23:25.654Z,0
2019-01-25T02:24:35.597Z,0
2019-01-25T02:25:45.544Z,0
2019-01-25T02:26:56.564Z,0
2019-01-25T02:28:06.544Z,0
2019-01-25T02:29:16.464Z,0
2019-01-25T02:30:25.694Z,0
2019-01-25T02:31:35.660Z,0
2019-01-25T02:32:45.341Z,0
2019-01-25T02:33:54.774Z,0
2019-01-25T02:35:04.689Z,0
2019-01-25T02:36:14.625Z,0
2019-01-25T02:37:24.318Z,0
2019-01-25T02:38:34.269Z,0
2019-01-25T02:39:43.944Z,0
2019-01-25T02:40:53.640Z,0
2019-01-25T02:42:03.337Z,0
2019-01-25T02:43:13.290Z,0
2019-01-25T02:44:23.000Z,0
2019-01-25T02:45:32.461Z,0
2019-01-25T02:46:42.425Z,0
2019-01-25T02:47:52.108Z,0
2019-01-25T02:49:02.042Z,0
2019-01-25T02:50:11.732Z,0
2019-01-25T02:51:21.424Z,0
2019-01-25T02:52:31.124Z,0
2019-01-25T02:53:40.843Z,0
2019-01-25T02:54:50.764Z,0
2019-01-25T02:56:00.700Z,0
2019-01-25T02:57:10.669Z,0
2019-01-25T02:58:20.365Z,0
2019-01-25T02:59:30.048Z,0
2019-01-25T03:00:39.977Z,0
2019-01-25T03:01:49.399Z,0
2019-01-25T03:02:59.321Z,0
2019-01-25T03:04:09.052Z,0
2019-01-25T03:05:18.510Z,0
2019-01-25T03:06:28.448Z,0
2019-01-25T03:07:38.137Z,0
2019-01-25T03:08:49.164Z,0
2019-01-25T03:09:59.086Z,0
2019-01-25T03:11:08.784Z,0
2019-01-25T03:12:18.738Z,0
2019-01-25T03:13:28.669Z,0
2019-01-25T03:14:38.345Z,0
2019-01-25T03:15:48.294Z,0
2019-01-25T03:16:58.228Z,0
2019-01-25T03:18:08.124Z,0
2019-01-25T03:19:18.049Z,0
2019-01-25T03:20:28.010Z,0
2019-01-25T03:21:37.704Z,0
2019-01-25T03:22:47.659Z,0
2019-01-25T03:23:57.608Z,0
2019-01-25T03:25:07.550Z,0
2019-01-25T03:26:17.243Z,0
2019-01-25T03:27:27.162Z,0
2019-01-25T03:28:37.116Z,0
2019-01-25T03:29:47.042Z,0
2019-01-25T03:30:57.003Z,0
2019-01-25T03:32:06.730Z,0
2019-01-25T03:33:16.824Z,0
2019-01-25T03:34:26.574Z,0
2019-01-25T03:35:36.510Z,0
2019-01-25T03:36:46.213Z,0
2019-01-25T03:37:56.176Z,0
2019-01-25T03:39:06.124Z,0
2019-01-25T03:40:16.034Z,0
2019-01-25T03:41:25.483Z,0
2019-01-25T03:42:35.176Z,0
2019-01-25T03:43:44.872Z,0
2019-01-25T03:44:54.819Z,0
2019-01-25T03:46:04.244Z,0
2019-01-25T03:47:14.017Z,0
2019-01-25T03:48:23.990Z,0
2019-01-25T03:49:33.440Z,0
2019-01-25T03:50:43.154Z,0
2019-01-25T03:51:53.111Z,0
2019-01-25T03:53:02.817Z,0
2019-01-25T03:54:12.512Z,0
2019-01-25T03:55:22.454Z,0
2019-01-25T03:56:32.407Z,0
2019-01-25T03:57:42.332Z,0
2019-01-25T03:58:52.017Z,0
2019-01-25T04:00:01.958Z,0
2019-01-25T04:01:11.907Z,0
2019-01-25T04:02:21.866Z,0
2019-01-25T04:03:31.812Z,0
2019-01-25T04:04:41.511Z,0
2019-01-25T04:05:50.939Z,0
2019-01-25T04:07:00.402Z,0
2019-01-25T04:08:10.320Z,0
2019-01-25T04:09:20.268Z,0
2019-01-25T04:10:30.192Z,0
2019-01-25T04:11:39.873Z,0
2019-01-25T04:12:49.681Z,0
2019-01-25T04:13:59.610Z,0
2019-01-25T04:15:09.309Z,0
2019-01-25T04:16:19.284Z,0
2019-01-25T04:17:28.992Z,0
2019-01-25T04:18:38.930Z,0
2019-01-25T04:19:48.372Z,0
2019-01-25T04:20:58.051Z,0
2019-01-25T04:22:07.985Z,0
2019-01-25T04:23:17.673Z,0
2019-01-25T04:24:27.599Z,0
2019-01-25T04:25:37.573Z,0
2019-01-25T04:26:47.264Z,0
2019-01-25T04:27:57.227Z,0
2019-01-25T04:29:07.170Z,0
2019-01-25T04:30:16.866Z,0
2019-01-25T04:31:26.870Z,0
2019-01-25T04:32:36.811Z,0
2019-01-25T04:33:46.509Z,0
2019-01-25T04:34:56.205Z,0
2019-01-25T04:36:06.139Z,0
2019-01-25T04:37:16.085Z,0
2019-01-25T04:38:25.767Z,0
2019-01-25T04:39:35.443Z,0
2019-01-25T04:40:45.147Z,0
2019-01-25T04:41:54.830Z,0
2019-01-25T04:43:04.062Z,0
2019-01-25T04:44:14.053Z,0
2019-01-25T04:45:23.732Z,0
2019-01-25T04:46:33.167Z,0
2019-01-25T04:47:42.856Z,0
2019-01-25T04:48:52.829Z,0
2019-01-25T04:50:02.542Z,0
2019-01-25T04:51:12.216Z,0
2019-01-25T04:52:22.169Z,0
2019-01-25T04:53:32.128Z,0
2019-01-25T04:54:41.914Z,0
2019-01-25T04:55:51.351Z,0
2019-01-25T04:57:01.040Z,0
2019-01-25T04:58:10.979Z,0
2019-01-25T04:59:20.942Z,0
2019-01-25T05:00:30.890Z,0
2019-01-25T05:01:40.820Z,0
2019-01-25T05:02:50.800Z,0
2019-01-25T05:04:00.752Z,0
2019-01-25T05:05:10.183Z,0
2019-01-25T05:06:19.883Z,0
2019-01-25T05:07:29.817Z,0
2019-01-25T05:08:39.768Z,0
2019-01-25T05:09:49.209Z,0
2019-01-25T05:10:59.210Z,0
2019-01-25T05:12:09.153Z,0
2019-01-25T05:13:19.086Z,0
2019-01-25T05:14:29.036Z,0
2019-01-25T05:15:38.746Z,0
2019-01-25T05:16:48.703Z,0
2019-01-25T05:17:58.667Z,0
2019-01-25T05:19:08.601Z,0
2019-01-25T05:20:18.298Z,0
2019-01-25T05:21:28.000Z,0
2019-01-25T05:22:37.485Z,0
2019-01-25T05:23:47.439Z,0
2019-01-25T05:24:57.122Z,0
2019-01-25T05:26:07.063Z,0
2019-01-25T05:27:17.002Z,0
2019-01-25T05:28:26.948Z,0
2019-01-25T05:29:36.899Z,0
2019-01-25T05:30:46.838Z,0
2019-01-25T05:31:56.772Z,0
2019-01-25T05:33:06.199Z,0
2019-01-25T05:34:15.912Z,0
2019-01-25T05:35:25.857Z,0
2019-01-25T05:36:35.629Z,0
2019-01-25T05:37:45.562Z,0
2019-01-25T05:38:55.252Z,0
2019-01-25T05:40:04.940Z,0
2019-01-25T05:41:14.892Z,0
2019-01-25T05:42:24.844Z,0
2019-01-25T05:43:34.785Z,0
2019-01-25T05:44:44.741Z,0
2019-01-25T05:45:54.440Z,0
2019-01-25T05:47:03.861Z,0
2019-01-25T05:48:15.079Z,0
2019-01-25T05:49:25.017Z,0
2019-01-25T05:50:34.469Z,0
2019-01-25T05:51:44.170Z,0
2019-01-25T05:52:54.107Z,0
2019-01-25T05:54:03.785Z,0
2019-01-25T05:55:13.478Z,0
2019-01-25T05:56:23.258Z,0
2019-01-25T05:57:33.183Z,0
2019-01-25T05:58:43.114Z,0
2019-01-25T05:59:53.040Z,0
2019-01-25T06:01:02.985Z,0
2019-01-25T06:02:12.941Z,0
2019-01-25T06:03:22.864Z,0
2019-01-25T06:04:32.808Z,0
2019-01-25T06:05:42.249Z,0
2019-01-25T06:06:51.927Z,0
2019-01-25T06:08:01.614Z,0
2019-01-25T06:09:11.300Z,0
2019-01-25T06:10:21.222Z,0
2019-01-25T06:11:37.809Z,0
2019-01-25T06:12:47.813Z,0
2019-01-25T06:13:58.020Z,0
2019-01-25T06:15:07.734Z,0
2019-01-25T06:16:17.699Z,0
2019-01-25T06:17:27.671Z,0
2019-01-25T06:18:37.633Z,0
2019-01-25T06:19:47.456Z,0
2019-01-25T06:20:57.432Z,0
2019-01-25T06:22:07.398Z,0
2019-01-25T06:23:17.335Z,0
2019-01-25T06:24:27.321Z,0
2019-01-25T06:25:37.053Z,0
2019-01-25T06:26:46.991Z,0
2019-01-25T06:27:56.955Z,0
2019-01-25T06:29:06.633Z,0
2019-01-25T06:30:16.885Z,0
2019-01-25T06:31:26.985Z,4
2019-01-25T06:32:38.073Z,4
2019-01-25T06:33:49.205Z,0
2019-01-25T06:34:59.197Z,4
2019-01-25T06:36:09.145Z,4
2019-01-25T06:37:18.851Z,8
2019-01-25T06:38:28.978Z,8
2019-01-25T06:39:38.666Z,8
2019-01-25T06:40:48.603Z,12
2019-01-25T06:41:58.293Z,16
2019-01-25T06:43:08.005Z,16
2019-01-25T06:44:17.947Z,20
2019-01-25T06:45:27.669Z,24
2019-01-25T06:46:37.348Z,28
2019-01-25T06:47:47.030Z,32
2019-01-25T06:48:56.558Z,40
2019-01-25T06:50:06.013Z,44
2019-01-25T06:51:16.043Z,48
2019-01-25T06:52:26.240Z,56
2019-01-25T06:53:35.920Z,64
2019-01-25T06:54:45.603Z,72
2019-01-25T06:55:55.292Z,80
2019-01-25T06:57:05.211Z,92
2019-01-25T06:58:14.890Z,104
2019-01-25T06:59:24.833Z,116
2019-01-25T07:00:34.621Z,128
2019-01-25T07:01:44.308Z,144
2019-01-25T07:02:54.034Z,156
2019-01-25T07:04:05.237Z,172
2019-01-25T07:05:15.258Z,184
2019-01-25T07:06:24.701Z,200
2019-01-25T07:07:34.640Z,220
2019-01-25T07:08:44.882Z,228
2019-01-25T07:09:54.619Z,244
2019-01-25T07:11:05.955Z,256
2019-01-25T07:12:15.917Z,264
2019-01-25T07:13:26.159Z,272
2019-01-25T07:14:36.089Z,284
2019-01-25T07:15:46.040Z,288
2019-01-25T07:16:55.731Z,296
2019-01-25T07:18:05.676Z,300
2019-01-25T07:19:15.615Z,316
2019-01-25T07:20:25.571Z,328
2019-01-25T07:21:35.266Z,344
2019-01-25T07:22:44.989Z,360
2019-01-25T07:23:54.927Z,376
2019-01-25T07:25:04.959Z,404
2019-01-25T07:26:14.903Z,424
2019-01-25T07:27:24.595Z,440
2019-01-25T07:28:34.542Z,452
2019-01-25T07:29:44.609Z,472
2019-01-25T07:30:54.339Z,496
2019-01-25T07:32:04.083Z,528
2019-01-25T07:33:14.079Z,548
2019-01-25T07:34:24.034Z,560
2019-01-25T07:35:34.050Z,572
2019-01-25T07:36:44.221Z,580
2019-01-25T07:37:54.475Z,588
2019-01-25T07:39:04.386Z,596
2019-01-25T07:40:13.873Z,612
2019-01-25T07:41:23.653Z,640
2019-01-25T07:42:33.730Z,652
2019-01-25T07:43:43.751Z,660
2019-01-25T07:44:53.497Z,672
2019-01-25T07:46:03.553Z,688
2019-01-25T07:47:13.369Z,720
2019-01-25T07:48:23.224Z,760
2019-01-25T07:49:33.397Z,812
2019-01-25T07:50:43.189Z,864
2019-01-25T07:51:52.715Z,916
2019-01-25T07:53:02.851Z,952
2019-01-25T07:54:13.042Z,976
2019-01-25T07:55:23.119Z,980
2019-01-25T07:56:33.185Z,1000
2019-01-25T07:57:43.271Z,1040
2019-01-25T07:58:53.380Z,1072
2019-01-25T08:00:03.101Z,1092
2019-01-25T08:01:13.227Z,1124
2019-01-25T08:02:22.977Z,1168
2019-01-25T08:03:32.733Z,1212
2019-01-25T08:04:42.549Z,1256
2019-01-25T08:05:52.506Z,1284
2019-01-25T08:07:02.393Z,1324
2019-01-25T08:08:12.600Z,1356
2019-01-25T08:09:22.637Z,1388
2019-01-25T08:10:33.200Z,1428
2019-01-25T08:11:42.974Z,1472
2019-01-25T08:12:52.591Z,1520
2019-01-25T08:14:02.491Z,1560
2019-01-25T08:15:12.256Z,1600
2019-01-25T08:16:22.091Z,1632
2019-01-25T08:17:32.354Z,1660
2019-01-25T08:18:42.047Z,1700
2019-01-25T08:19:52.106Z,1748
2019-01-25T08:21:01.897Z,1800
2019-01-25T08:22:11.701Z,1852
2019-01-25T08:23:21.840Z,1916
2019-01-25T08:24:31.729Z,1972
2019-01-25T08:25:41.465Z,2016
2019-01-25T08:26:51.753Z,2084
2019-01-25T08:28:01.605Z,2172
2019-01-25T08:29:11.811Z,2224
2019-01-25T08:30:21.756Z,2248
2019-01-25T08:31:31.531Z,2260
2019-01-25T08:32:41.690Z,2296
2019-01-25T08:33:51.700Z,2356
2019-01-25T08:35:01.289Z,2452
2019-01-25T08:36:11.030Z,2556
2019-01-25T08:37:21.166Z,2636
2019-01-25T08:38:31.323Z,2664
2019-01-25T08:39:40.881Z,2652
2019-01-25T08:40:50.893Z,2684
2019-01-25T08:42:00.805Z,2756
2019-01-25T08:43:11.469Z,2860
2019-01-25T08:44:21.523Z,2896
2019-01-25T08:45:31.591Z,2944
2019-01-25T08:46:41.362Z,2920
2019-01-25T08:47:51.363Z,2868
2019-01-25T08:49:01.438Z,2896
2019-01-25T08:50:11.439Z,2944
2019-01-25T08:51:21.157Z,2968
2019-01-25T08:52:31.299Z,3016
2019-01-25T08:53:42.942Z,3124
2019-01-25T08:54:52.909Z,3272
2019-01-25T08:56:02.854Z,3436
2019-01-25T08:57:12.633Z,3536
2019-01-25T08:58:22.729Z,3620
2019-01-25T08:59:32.491Z,3716
2019-01-25T09:00:42.484Z,3868
2019-01-25T09:01:52.447Z,4080
2019-01-25T09:03:02.148Z,4312
2019-01-25T09:04:12.093Z,4596
2019-01-25T09:05:21.549Z,4924
2019-01-25T09:06:31.333Z,5320
2019-01-25T09:07:41.035Z,5748
2019-01-25T09:08:50.979Z,6284
2019-01-25T09:10:00.681Z,6884
2019-01-25T09:11:10.144Z,7652
2019-01-25T09:12:25.512Z,8368
2019-01-25T09:13:35.217Z,8900
2019-01-25T09:14:44.696Z,9372
2019-01-25T09:15:54.704Z,10224
2019-01-25T09:17:04.674Z,11524
2019-01-25T09:18:14.610Z,13720
2019-01-25T09:19:24.550Z,12904
2019-01-25T09:20:34.472Z,14168
2019-01-25T09:21:44.405Z,15324
2019-01-25T09:22:54.346Z,17984
2019-01-25T09:24:04.055Z,19968
2019-01-25T09:25:13.518Z,20256
2019-01-25T09:26:23.474Z,20800
2019-01-25T09:27:33.440Z,21440
2019-01-25T09:28:43.152Z,22688
2019-01-25T09:29:53.143Z,23232
2019-01-25T09:31:02.861Z,21536
2019-01-25T09:32:12.804Z,18848
2019-01-25T09:33:22.767Z,18784
2019-01-25T09:34:32.470Z,19616
2019-01-25T09:35:42.164Z,21120
2019-01-25T09:36:52.117Z,23136
2019-01-25T09:38:02.044Z,25984
2019-01-25T09:39:11.971Z,34336
2019-01-25T09:40:21.914Z,34048
2019-01-25T09:41:31.854Z,29248
2019-01-25T09:42:41.547Z,20640
2019-01-25T09:43:51.499Z,20096
2019-01-25T09:45:01.460Z,21312
2019-01-25T09:46:11.411Z,25792
2019-01-25T09:47:21.347Z,24224
2019-01-25T09:48:31.289Z,25792
2019-01-25T09:49:41.228Z,26400
2019-01-25T09:50:57.672Z,26944
2019-01-25T09:52:07.620Z,26816
2019-01-25T09:53:17.570Z,27008
2019-01-25T09:54:27.330Z,26592
2019-01-25T09:55:36.772Z,18752
2019-01-25T09:56:46.735Z,19936
2019-01-25T09:57:56.168Z,22048
2019-01-25T09:59:06.130Z,24512
2019-01-25T10:00:15.832Z,28544
2019-01-25T10:01:25.023Z,40000
2019-01-25T10:02:34.984Z,40832
2019-01-25T10:03:44.685Z,39456
2019-01-25T10:04:56.420Z,37344
2019-01-25T10:06:06.112Z,33664
2019-01-25T10:07:15.812Z,31808
2019-01-25T10:08:25.765Z,28704
2019-01-25T10:09:35.724Z,23232
2019-01-25T10:10:45.429Z,17568
2019-01-25T10:11:55.139Z,14276
2019-01-25T10:13:05.110Z,13188
2019-01-25T10:14:14.903Z,13048
2019-01-25T10:15:26.484Z,13600
2019-01-25T10:16:35.930Z,13836
2019-01-25T10:17:45.638Z,14684
2019-01-25T10:18:55.347Z,16132
2019-01-25T10:20:05.299Z,18720
2019-01-25T10:21:15.249Z,19904
2019-01-25T10:22:25.203Z,21664
2019-01-25T10:23:39.033Z,36832
2019-01-25T10:24:48.882Z,32544
2019-01-25T10:25:58.588Z,34720
2019-01-25T10:27:08.540Z,32800
2019-01-25T10:28:18.258Z,18592
2019-01-25T10:29:28.200Z,15156
2019-01-25T10:30:37.912Z,15068
2019-01-25T10:31:47.889Z,15952
2019-01-25T10:32:57.835Z,17344
2019-01-25T10:34:08.235Z,15348
2019-01-25T10:35:17.931Z,15988
2019-01-25T10:36:27.690Z,14408
2019-01-25T10:37:37.634Z,13892
2019-01-25T10:38:47.118Z,14228
2019-01-25T10:39:57.064Z,15008
2019-01-25T10:41:06.844Z,15492
2019-01-25T10:42:16.552Z,16704
2019-01-25T10:43:26.261Z,26976
2019-01-25T10:44:35.724Z,17984
2019-01-25T10:45:45.689Z,16864
2019-01-25T10:46:57.200Z,15296
2019-01-25T10:48:07.232Z,14732
2019-01-25T10:49:17.185Z,14836
2019-01-25T10:50:26.654Z,15096
2019-01-25T10:51:36.690Z,14888
2019-01-25T10:52:46.540Z,14568
2019-01-25T10:53:56.493Z,14372
2019-01-25T10:55:06.471Z,13924
2019-01-25T10:56:16.440Z,13652
2019-01-25T10:57:26.139Z,13484
2019-01-25T10:58:36.088Z,13376
2019-01-25T10:59:46.067Z,14096
2019-01-25T11:00:55.954Z,14708
2019-01-25T11:02:05.914Z,14100
2019-01-25T11:03:15.620Z,13328
2019-01-25T11:04:24.831Z,13640
2019-01-25T11:05:34.552Z,13644
2019-01-25T11:06:44.252Z,13268
2019-01-25T11:07:53.974Z,12720
2019-01-25T11:09:03.953Z,12552
2019-01-25T11:10:13.685Z,12900
2019-01-25T11:11:23.679Z,13812
2019-01-25T11:12:33.657Z,19168
2019-01-25T11:13:43.606Z,27904
2019-01-25T11:14:53.335Z,28224
2019-01-25T11:16:03.312Z,42688
2019-01-25T11:17:12.501Z,46624
2019-01-25T11:18:22.450Z,46688
2019-01-25T11:19:31.907Z,42816
2019-01-25T11:20:41.633Z,46560
2019-01-25T11:21:51.580Z,48096
2019-01-25T11:23:01.574Z,49920
2019-01-25T11:24:15.038Z,51328
2019-01-25T11:25:24.742Z,49760
2019-01-25T11:26:34.483Z,51296
2019-01-25T11:27:44.466Z,50080
2019-01-25T11:28:54.440Z,46464
2019-01-25T11:30:04.132Z,42944
2019-01-25T11:31:14.065Z,31200
2019-01-25T11:32:23.787Z,22368
2019-01-25T11:33:33.481Z,19328
2019-01-25T11:34:43.181Z,17728
2019-01-25T11:35:52.627Z,16412
2019-01-25T11:37:02.612Z,15120
2019-01-25T11:38:12.329Z,12896
2019-01-25T11:39:22.054Z,11696
2019-01-25T11:40:32.014Z,11864
2019-01-25T11:41:41.994Z,12640
2019-01-25T11:42:51.946Z,13648
2019-01-25T11:44:01.892Z,13760
2019-01-25T11:45:11.912Z,13384
2019-01-25T11:46:21.877Z,13556
2019-01-25T11:47:31.843Z,14828
2019-01-25T11:48:41.821Z,16648
2019-01-25T11:49:51.528Z,19264
2019-01-25T11:51:01.271Z,21312
2019-01-25T11:52:11.686Z,22240
2019-01-25T11:53:21.649Z,22144
2019-01-25T11:54:31.593Z,20320
2019-01-25T11:55:41.307Z,17824
2019-01-25T11:56:51.271Z,15992
2019-01-25T11:58:01.485Z,16020
2019-01-25T11:59:11.460Z,18080
2019-01-25T12:00:21.264Z,20768
2019-01-25T12:01:30.956Z,21664
2019-01-25T12:02:40.912Z,21184
2019-01-25T12:03:50.611Z,20448
2019-01-25T12:05:00.553Z,20416
2019-01-25T12:06:10.489Z,18752
2019-01-25T12:07:20.439Z,17472
2019-01-25T12:08:29.890Z,16308
2019-01-25T12:09:39.833Z,15300
2019-01-25T12:10:49.604Z,13600
2019-01-25T12:11:59.558Z,12804
2019-01-25T12:13:15.816Z,12820
2019-01-25T12:14:25.945Z,12372
2019-01-25T12:15:35.902Z,12180
2019-01-25T12:16:45.350Z,11808
2019-01-25T12:17:55.034Z,11980
2019-01-25T12:19:04.743Z,12028
2019-01-25T12:20:14.720Z,11300
2019-01-25T12:21:25.578Z,10576
2019-01-25T12:22:35.773Z,9680
2019-01-25T12:23:45.879Z,9508
2019-01-25T12:24:55.577Z,9520
2019-01-25T12:26:05.522Z,9072
2019-01-25T12:27:15.458Z,9204
2019-01-25T12:28:25.434Z,9432
2019-01-25T12:29:35.612Z,9252
2019-01-25T12:30:45.630Z,8684
2019-01-25T12:31:54.810Z,7968
2019-01-25T12:33:04.775Z,7216
2019-01-25T12:34:14.975Z,6808
2019-01-25T12:35:24.766Z,6896
2019-01-25T12:36:34.652Z,7216
2019-01-25T12:37:44.137Z,7968
2019-01-25T12:38:53.931Z,9480
2019-01-25T12:40:04.103Z,10964
2019-01-25T12:41:14.172Z,11696
2019-01-25T12:42:24.122Z,11704
2019-01-25T12:43:34.091Z,10232
2019-01-25T12:44:44.021Z,9012
2019-01-25T12:45:57.172Z,8736
2019-01-25T12:47:07.169Z,9240
2019-01-25T12:48:17.115Z,9116
2019-01-25T12:49:26.813Z,9264
2019-01-25T12:50:36.778Z,8948
2019-01-25T12:51:47.242Z,9452
2019-01-25T12:52:56.999Z,9252
2019-01-25T12:54:06.949Z,10240
2019-01-25T12:55:16.910Z,10208
2019-01-25T12:56:26.635Z,9960
2019-01-25T12:57:36.351Z,10208
2019-01-25T12:58:46.138Z,10148
2019-01-25T12:59:56.070Z,8924
2019-01-25T13:01:06.230Z,8528
2019-01-25T13:02:16.226Z,10440
2019-01-25T13:03:26.273Z,9404
2019-01-25T13:04:35.703Z,8928
2019-01-25T13:05:45.836Z,8132
2019-01-25T13:06:55.783Z,8052
2019-01-25T13:08:05.472Z,8860
2019-01-25T13:09:15.488Z,10224
2019-01-25T13:10:25.479Z,10680
2019-01-25T13:11:35.725Z,10400
2019-01-25T13:12:45.410Z,9304
2019-01-25T13:13:55.362Z,8200
2019-01-25T13:15:05.333Z,7272
2019-01-25T13:16:15.265Z,6752
2019-01-25T13:17:25.033Z,6512
2019-01-25T13:18:34.776Z,6420
2019-01-25T13:19:44.728Z,6828
2019-01-25T13:20:54.773Z,7464
2019-01-25T13:22:04.457Z,7876
2019-01-25T13:23:14.414Z,8596
2019-01-25T13:24:24.353Z,9308
2019-01-25T13:25:34.458Z,9760
2019-01-25T13:26:43.929Z,9944
2019-01-25T13:27:53.935Z,9964
2019-01-25T13:29:04.059Z,10100
2019-01-25T13:30:13.972Z,9704
2019-01-25T13:31:24.146Z,9632
2019-01-25T13:32:34.055Z,9496
2019-01-25T13:33:44.193Z,9128
2019-01-25T13:34:54.275Z,9036
2019-01-25T13:36:04.043Z,9516
2019-01-25T13:37:14.116Z,10036
2019-01-25T13:38:23.881Z,10460
2019-01-25T13:39:33.818Z,10624
2019-01-25T13:40:43.776Z,10920
2019-01-25T13:41:53.470Z,11248
2019-01-25T13:43:03.421Z,11204
2019-01-25T13:44:12.854Z,11344
2019-01-25T13:45:22.546Z,11848
2019-01-25T13:46:32.493Z,12480
2019-01-25T13:47:42.181Z,11312
2019-01-25T13:48:52.128Z,11620
2019-01-25T13:50:01.808Z,12464
2019-01-25T13:51:12.915Z,13120
2019-01-25T13:52:22.356Z,14004
2019-01-25T13:53:32.035Z,15936
2019-01-25T13:54:41.725Z,16672
2019-01-25T13:55:51.669Z,15584
2019-01-25T13:57:01.132Z,17216
2019-01-25T13:58:10.827Z,16416
2019-01-25T13:59:20.766Z,16608
2019-01-25T14:00:30.796Z,17696
2019-01-25T14:01:43.583Z,14720
2019-01-25T14:02:53.513Z,14100
2019-01-25T14:04:03.511Z,15232
2019-01-25T14:05:13.256Z,14240
2019-01-25T14:06:22.961Z,12436
2019-01-25T14:07:32.907Z,11980
2019-01-25T14:08:42.864Z,12084
2019-01-25T14:09:52.825Z,12592
2019-01-25T14:11:02.811Z,12696
2019-01-25T14:12:13.261Z,13128
2019-01-25T14:13:23.220Z,13548
2019-01-25T14:14:33.167Z,13812
2019-01-25T14:15:43.121Z,13448
2019-01-25T14:16:52.812Z,12432
2019-01-25T14:18:02.843Z,11004
2019-01-25T14:19:12.556Z,9552
2019-01-25T14:20:27.924Z,8188
2019-01-25T14:21:37.376Z,7052
2019-01-25T14:22:47.076Z,6268
2019-01-25T14:23:57.017Z,5696
2019-01-25T14:25:06.965Z,4956
2019-01-25T14:26:16.164Z,4288
2019-01-25T14:27:25.855Z,4104
2019-01-25T14:28:35.545Z,3548
2019-01-25T14:29:45.269Z,2908
2019-01-25T14:30:55.206Z,2664
2019-01-25T14:32:04.951Z,2596
2019-01-25T14:33:15.748Z,2496
2019-01-25T14:34:25.453Z,2348
2019-01-25T14:35:35.420Z,2484
2019-01-25T14:36:45.103Z,2736
2019-01-25T14:37:55.064Z,2700
2019-01-25T14:39:05.017Z,2332
2019-01-25T14:40:14.749Z,2336
2019-01-25T14:41:24.700Z,2352
2019-01-25T14:42:34.641Z,2268
2019-01-25T14:43:44.341Z,1840
2019-01-25T14:44:54.303Z,1692
2019-01-25T14:46:04.266Z,1656
2019-01-25T14:47:14.275Z,1800
2019-01-25T14:48:23.971Z,1788
2019-01-25T14:49:33.666Z,1776
2019-01-25T14:50:43.681Z,1748
2019-01-25T14:51:53.647Z,1684
2019-01-25T14:53:03.626Z,1584
2019-01-25T14:54:13.318Z,1484
2019-01-25T14:55:23.001Z,1380
2019-01-25T14:56:32.694Z,1260
2019-01-25T14:57:42.641Z,1168
2019-01-25T14:58:52.317Z,1088
2019-01-25T15:00:02.011Z,1048
2019-01-25T15:01:11.972Z,1044
2019-01-25T15:02:21.479Z,1048
2019-01-25T15:03:31.438Z,1024
2019-01-25T15:04:41.117Z,944
2019-01-25T15:05:52.455Z,844
2019-01-25T15:07:02.490Z,768
2019-01-25T15:08:12.186Z,732
2019-01-25T15:09:22.125Z,700
2019-01-25T15:10:32.078Z,668
2019-01-25T15:11:42.807Z,648
2019-01-25T15:12:52.496Z,660
2019-01-25T15:14:09.344Z,676
2019-01-25T15:15:19.046Z,672
2019-01-25T15:16:28.506Z,624
2019-01-25T15:17:38.206Z,536
2019-01-25T15:18:48.151Z,484
2019-01-25T15:19:57.847Z,456
2019-01-25T15:21:07.545Z,428
2019-01-25T15:22:16.963Z,420
2019-01-25T15:23:26.912Z,440
2019-01-25T15:24:36.852Z,408
2019-01-25T15:25:46.541Z,376
2019-01-25T15:26:56.468Z,380
2019-01-25T15:28:05.908Z,400
2019-01-25T15:29:15.852Z,396
2019-01-25T15:30:25.802Z,368
2019-01-25T15:31:35.477Z,356
2019-01-25T15:32:45.189Z,348
2019-01-25T15:33:55.154Z,336
2019-01-25T15:35:04.852Z,324
2019-01-25T15:36:14.796Z,304
2019-01-25T15:37:24.875Z,280
2019-01-25T15:38:34.579Z,260
2019-01-25T15:39:44.555Z,236
2019-01-25T15:40:54.486Z,204
2019-01-25T15:42:04.228Z,180
2019-01-25T15:43:14.164Z,160
2019-01-25T15:44:23.876Z,144
2019-01-25T15:45:33.052Z,124
2019-01-25T15:46:42.752Z,112
2019-01-25T15:47:52.700Z,96
2019-01-25T15:49:02.649Z,84
2019-01-25T15:50:12.857Z,72
2019-01-25T15:51:22.850Z,64
2019-01-25T15:52:32.534Z,52
2019-01-25T15:53:42.236Z,44
2019-01-25T15:54:52.182Z,36
2019-01-25T15:56:02.118Z,32
2019-01-25T15:57:12.068Z,24
2019-01-25T15:58:22.018Z,20
2019-01-25T15:59:31.945Z,16
2019-01-25T16:00:41.636Z,12
2019-01-25T16:01:51.565Z,8
2019-01-25T16:03:01.510Z,8
2019-01-25T16:04:11.461Z,8
2019-01-25T16:05:20.915Z,8
2019-01-25T16:06:30.856Z,4
2019-01-25T16:07:40.552Z,4
2019-01-25T16:08:50.278Z,4